Time;durP1;ratioP1;P1;durP2;ratioP2;P2;SDS_P1;SDS_P2;PMS_P1;PMS_P2;Temp;Humidity;BMP_temperature;BMP_pressure;BME280_temperature;BME280_humidity;BME280_pressure;Samples;Min_cycle;Max_cycle;Signal;HPM_P1;HPM_P2
2021/04/07 00:01:44;;;;;;;15.15;9.65;;;;;;;6.93;77.50;99746.89;1778584;79;22696;-77
2021/04/07 00:04:13;;;;;;;16.25;10.60;;;;;;;6.96;77.45;99728.45;1778336;80;21341;-76
2021/04/07 00:06:41;;;;;;;19.10;10.38;;;;;;;7.00;77.40;99741.25;1778506;80;20994;-76
2021/04/07 00:09:11;;;;;;;19.80;12.33;;;;;;;7.06;77.35;99746.54;1778493;80;21006;-76
2021/04/07 00:11:40;;;;;;;16.15;11.95;;;;;;;7.10;77.26;99749.81;1778618;80;21511;-76
2021/04/07 00:14:09;;;;;;;17.25;10.23;;;;;;;7.13;77.21;99744.41;1778511;79;22379;-76
2021/04/07 00:16:38;;;;;;;13.22;9.88;;;;;;;7.14;77.36;99737.81;1778585;80;21436;-76
2021/04/07 00:19:07;;;;;;;14.35;9.45;;;;;;;7.17;77.33;99738.09;1778499;80;21015;-77
2021/04/07 00:21:35;;;;;;;13.50;9.90;;;;;;;7.19;77.42;99734.92;1778507;80;20950;-77
2021/04/07 00:24:04;;;;;;;17.10;9.65;;;;;;;7.23;77.56;99732.50;1778607;80;21463;-76
2021/04/07 00:26:34;;;;;;;17.42;10.15;;;;;;;7.26;77.64;99711.45;1778570;80;22649;-78
2021/04/07 00:29:03;;;;;;;16.42;10.10;;;;;;;7.30;77.71;99722.06;1778463;80;20950;-77
2021/04/07 00:31:32;;;;;;;15.80;12.18;;;;;;;7.31;77.73;99705.95;1778605;79;20934;-78
2021/04/07 00:34:01;;;;;;;12.03;9.38;;;;;;;7.35;77.76;99707.44;1778901;80;21028;-72
2021/04/07 00:36:30;;;;;;;11.33;7.37;;;;;;;7.40;77.84;99713.20;1780238;80;21424;-73
2021/04/07 00:38:58;;;;;;;16.67;7.90;;;;;;;7.41;77.86;99708.38;1779802;79;21392;-74
2021/04/07 00:41:27;;;;;;;9.58;7.05;;;;;;;7.44;78.00;99702.48;1779859;80;20958;-75
2021/04/07 00:43:55;;;;;;;9.98;5.97;;;;;;;7.45;78.11;99701.57;1781816;79;21029;-73
2021/04/07 00:46:24;;;;;;;13.22;7.50;;;;;;;7.48;78.27;99694.84;1756660;79;20911;-74
2021/04/07 00:48:52;;;;;;;15.85;8.03;;;;;;;7.54;78.29;99684.98;1781037;80;21348;-75
2021/04/07 00:51:21;;;;;;;9.03;7.30;;;;;;;7.59;78.28;99675.09;1778927;80;21879;-76
2021/04/07 00:53:49;;;;;;;9.68;7.45;;;;;;;7.60;78.35;99665.01;1778591;80;21007;-77
2021/04/07 00:56:18;;;;;;;13.83;7.70;;;;;;;7.59;78.46;99656.83;1778900;80;20986;-77
2021/04/07 00:58:46;;;;;;;13.53;6.80;;;;;;;7.58;78.54;99652.52;1779081;79;21605;-76
2021/04/07 01:01:14;;;;;;;8.10;6.45;;;;;;;7.57;78.92;99650.86;1778895;80;20891;-75
2021/04/07 01:03:42;;;;;;;9.93;7.45;;;;;;;7.53;79.27;99633.72;1778941;80;21495;-76
2021/04/07 01:06:10;;;;;;;10.80;7.78;;;;;;;7.50;79.54;99619.11;1778980;80;20986;-76
2021/04/07 01:08:39;;;;;;;13.53;9.03;;;;;;;7.47;79.91;99623.23;1778947;79;21464;-77
2021/04/07 01:11:08;;;;;;;10.13;8.25;;;;;;;7.46;79.95;99600.20;1778937;80;21451;-78
2021/04/07 01:13:38;;;;;;;9.88;7.40;;;;;;;7.48;80.14;99594.41;1778786;80;20942;-78
2021/04/07 01:16:06;;;;;;;12.50;6.87;;;;;;;7.47;80.29;99582.32;1778547;80;21360;-78
2021/04/07 01:18:35;;;;;;;9.68;6.85;;;;;;;7.49;80.32;99584.81;1778512;80;20950;-78
2021/04/07 01:21:06;;;;;;;9.58;4.97;;;;;;;7.49;80.72;99579.59;1778702;80;20891;-78
2021/04/07 01:23:34;;;;;;;6.15;4.95;;;;;;;7.47;80.74;99582.32;1778549;80;20938;-79
2021/04/07 01:26:02;;;;;;;7.25;5.87;;;;;;;7.48;81.01;99584.45;1778560;80;20954;-77
2021/04/07 01:28:32;;;;;;;8.18;6.65;;;;;;;7.46;81.23;99575.41;1775444;80;21397;-78
2021/04/07 01:31:01;;;;;;;8.28;5.67;;;;;;;7.48;81.36;99570.11;1778593;80;21372;-79
2021/04/07 01:33:29;;;;;;;10.40;7.95;;;;;;;7.52;81.34;99557.24;1778577;80;21511;-79
2021/04/07 01:35:57;;;;;;;7.28;6.55;;;;;;;7.55;81.33;99549.68;1778515;80;21461;-78
2021/04/07 01:38:26;;;;;;;7.50;6.22;;;;;;;7.56;81.31;99546.98;1778660;80;20978;-78
2021/04/07 01:40:57;;;;;;;8.73;6.03;;;;;;;7.59;81.27;99532.89;1778664;80;22179;-77
2021/04/07 01:43:27;;;;;;;11.43;7.08;;;;;;;7.62;81.33;99550.95;1778460;80;21396;-79
2021/04/07 01:45:56;;;;;;;11.88;6.95;;;;;;;7.64;81.44;99541.25;1778555;80;21538;-78
2021/04/07 01:48:25;;;;;;;12.13;8.85;;;;;;;7.68;81.32;99536.20;1778530;80;20947;-76
2021/04/07 01:50:53;;;;;;;14.40;9.63;;;;;;;7.70;81.43;99546.08;1778530;80;21472;-76
2021/04/07 01:53:21;;;;;;;12.93;10.00;;;;;;;7.76;81.22;99548.30;1778485;80;21797;-78
2021/04/07 01:55:49;;;;;;;13.55;10.72;;;;;;;7.78;80.98;99545.11;1778393;79;21013;-79
2021/04/07 01:58:19;;;;;;;11.25;7.62;;;;;;;7.79;80.90;99540.25;1775165;80;21010;-80
2021/04/07 02:00:47;;;;;;;11.35;7.45;;;;;;;7.83;80.81;99544.34;1778481;80;21002;-80
2021/04/07 02:03:16;;;;;;;14.35;7.75;;;;;;;7.87;80.63;99538.45;1778544;80;21030;-80
2021/04/07 02:05:44;;;;;;;11.93;7.95;;;;;;;7.88;80.50;99543.55;1778408;80;21352;-79
2021/04/07 02:08:12;;;;;;;15.35;10.30;;;;;;;7.88;80.62;99549.25;1778481;79;21427;-78
2021/04/07 02:10:41;;;;;;;12.75;8.03;;;;;;;7.94;80.70;99551.91;1778544;80;21170;-78
2021/04/07 02:13:11;;;;;;;13.62;8.98;;;;;;;7.99;80.46;99548.06;1777619;80;20931;-76
2021/04/07 02:15:39;;;;;;;10.20;7.25;;;;;;;8.00;80.19;99544.98;1778392;80;20957;-76
2021/04/07 02:18:08;;;;;;;10.18;7.25;;;;;;;7.98;80.11;99553.38;1778408;80;21356;-76
2021/04/07 02:20:36;;;;;;;11.05;6.72;;;;;;;7.96;80.03;99550.89;1778420;79;21550;-77
2021/04/07 02:23:05;;;;;;;11.70;6.95;;;;;;;7.96;80.18;99553.95;1778328;79;20958;-76
2021/04/07 02:25:34;;;;;;;9.60;7.25;;;;;;;7.98;80.30;99554.69;1778380;80;20947;-77
2021/04/07 02:28:02;;;;;;;10.18;7.92;;;;;;;8.05;80.24;99563.81;1778472;80;20942;-77
2021/04/07 02:30:30;;;;;;;11.05;8.35;;;;;;;8.07;80.01;99565.38;1778346;80;21354;-77
2021/04/07 02:32:58;;;;;;;10.53;7.22;;;;;;;8.09;79.91;99560.03;1778402;80;21575;-77
2021/04/07 02:35:27;;;;;;;12.88;6.30;;;;;;;8.08;79.73;99561.81;1778458;79;21472;-78
2021/04/07 02:37:55;;;;;;;7.83;6.42;;;;;;;8.06;79.78;99553.72;1778327;80;20935;-76
2021/04/07 02:40:27;;;;;;;9.13;5.85;;;;;;;8.04;79.92;99545.14;1778416;80;20918;-77
2021/04/07 02:42:56;;;;;;;8.68;6.53;;;;;;;8.07;80.16;99544.48;1778501;80;22277;-77
2021/04/07 02:45:23;;;;;;;8.00;6.20;;;;;;;8.12;80.21;99539.43;1778391;80;21555;-77
2021/04/07 02:47:51;;;;;;;6.05;5.45;;;;;;;8.18;80.20;99546.83;1778380;80;21271;-78
2021/04/07 02:50:20;;;;;;;6.37;4.80;;;;;;;8.22;79.76;99536.06;1778510;80;21411;-79
2021/04/07 02:52:48;;;;;;;7.12;4.47;;;;;;;8.19;79.66;99536.28;1778634;80;21025;-77
2021/04/07 02:55:17;;;;;;;7.97;5.37;;;;;;;8.22;79.71;99533.45;1778547;80;21408;-78
2021/04/07 02:57:45;;;;;;;6.65;5.03;;;;;;;8.25;79.83;99541.10;1778422;80;20911;-77
2021/04/07 03:00:15;;;;;;;7.87;5.67;;;;;;;8.28;79.85;99536.96;1778562;80;20953;-80
2021/04/07 03:02:43;;;;;;;9.95;5.67;;;;;;;8.33;79.79;99535.34;1778645;80;20927;-78
2021/04/07 03:05:12;;;;;;;6.95;5.15;;;;;;;8.34;79.50;99530.50;1778452;79;20942;-78
2021/04/07 03:07:41;;;;;;;5.08;4.25;;;;;;;8.31;79.43;99518.94;1778653;80;22259;-77
2021/04/07 03:10:10;;;;;;;5.12;3.70;;;;;;;8.32;79.48;99522.41;1779637;80;21010;-77
2021/04/07 03:12:42;;;;;;;6.42;3.92;;;;;;;8.36;79.32;99519.92;1779352;79;20962;-76
2021/04/07 03:15:11;;;;;;;5.90;3.27;;;;;;;8.37;79.40;99504.16;1779158;79;21439;-76
2021/04/07 03:17:41;;;;;;;6.25;3.80;;;;;;;8.37;79.36;99505.47;1778730;80;20962;-76
2021/04/07 03:20:10;;;;;;;6.25;4.75;;;;;;;8.34;79.50;99504.83;1778566;80;21196;-77
2021/04/07 03:22:39;;;;;;;9.03;6.50;;;;;;;8.32;79.56;99504.95;1778613;79;20997;-76
2021/04/07 03:25:09;;;;;;;10.88;6.35;;;;;;;8.32;79.71;99501.03;1778486;79;21002;-79
2021/04/07 03:27:38;;;;;;;9.13;5.33;;;;;;;8.37;79.64;99496.80;1778475;79;20974;-77
2021/04/07 03:30:08;;;;;;;10.78;6.35;;;;;;;8.40;79.57;99493.52;1778544;79;21037;-79
2021/04/07 03:32:35;;;;;;;7.58;5.12;;;;;;;8.45;79.64;99480.99;1778528;80;21355;-79
2021/04/07 03:35:05;;;;;;;8.15;5.65;;;;;;;8.50;79.67;99480.67;1778460;80;21488;-79
2021/04/07 03:37:33;;;;;;;7.10;6.12;;;;;;;8.54;79.64;99476.05;1778586;80;20946;-79
2021/04/07 03:40:01;;;;;;;9.30;7.17;;;;;;;8.59;79.41;99476.58;1778547;80;21476;-78
2021/04/07 03:42:29;;;;;;;6.83;4.72;;;;;;;8.62;79.31;99468.52;1778661;80;21416;-79
2021/04/07 03:44:57;;;;;;;5.08;3.50;;;;;;;8.65;79.15;99467.84;1778577;80;22159;-78
2021/04/07 03:47:25;;;;;;;4.45;3.45;;;;;;;8.69;79.01;99456.23;1778566;80;21564;-78
2021/04/07 03:49:54;;;;;;;6.15;3.85;;;;;;;8.72;78.78;99457.78;1778570;79;20887;-77
2021/04/07 03:52:23;;;;;;;5.67;3.22;;;;;;;8.69;78.97;99449.70;1778485;80;20884;-78
2021/04/07 03:54:56;;;;;;;3.42;2.95;;;;;;;8.67;78.88;99433.28;1778608;80;20934;-78
2021/04/07 03:57:21;;;;;;;3.55;2.70;;;;;;;8.65;78.94;99429.11;1778114;80;21365;-78
2021/04/07 03:59:49;;;;;;;2.30;2.10;;;;;;;8.65;78.94;99430.42;1778544;80;21407;-77
2021/04/07 04:02:17;;;;;;;3.05;2.08;;;;;;;8.65;78.82;99425.20;1778613;79;21377;-78
2021/04/07 04:04:45;;;;;;;1.98;1.77;;;;;;;8.65;78.83;99430.42;1776371;79;21340;-78
2021/04/07 04:07:14;;;;;;;3.12;2.83;;;;;;;8.64;78.97;99424.81;1770000;81;20923;-78
2021/04/07 04:09:43;;;;;;;5.87;4.42;;;;;;;8.67;79.12;99413.69;1770065;81;22217;-80
2021/04/07 04:12:11;;;;;;;7.00;5.40;;;;;;;8.67;79.02;99413.69;1769972;79;20946;-80
2021/04/07 04:14:42;;;;;;;5.85;5.20;;;;;;;8.66;79.00;99409.86;1770129;79;21476;-79
2021/04/07 04:17:10;;;;;;;7.35;5.10;;;;;;;8.65;78.87;99407.73;1770063;81;21018;-79
2021/04/07 04:19:38;;;;;;;6.60;5.25;;;;;;;8.64;78.98;99402.60;1750701;81;20975;-79
2021/04/07 04:22:07;;;;;;;6.80;4.70;;;;;;;8.64;79.03;99390.84;1770021;81;21382;-77
2021/04/07 04:24:36;;;;;;;6.40;5.30;;;;;;;8.61;79.12;99401.53;1770000;80;21365;-77
2021/04/07 04:27:05;;;;;;;6.53;4.53;;;;;;;8.61;79.38;99429.80;1769939;79;21365;-78
2021/04/07 04:29:35;;;;;;;6.30;5.00;;;;;;;8.65;79.35;99419.97;1769981;81;20946;-78
2021/04/07 04:32:04;;;;;;;4.67;4.25;;;;;;;8.70;79.37;99425.22;1770027;79;20923;-73
2021/04/07 04:34:32;;;;;;;7.12;4.70;;;;;;;8.76;79.49;99425.26;1770000;79;22286;-71
2021/04/07 04:37:00;;;;;;;8.43;5.42;;;;;;;8.81;79.49;99423.63;1770012;80;21496;-73
2021/04/07 04:39:28;;;;;;;7.95;6.10;;;;;;;8.87;79.48;99420.55;1770000;79;21556;-73
2021/04/07 04:41:56;;;;;;;8.13;5.20;;;;;;;8.97;79.17;99405.05;1769997;80;21622;-71
2021/04/07 04:44:27;;;;;;;6.42;5.42;;;;;;;9.01;79.14;99392.94;1769892;80;21065;-72
2021/04/07 04:46:55;;;;;;;7.37;5.10;;;;;;;9.05;79.00;99392.25;1769949;81;21692;-72
2021/04/07 04:49:26;;;;;;;8.10;5.75;;;;;;;9.06;78.93;99393.42;1767671;80;21061;-74
2021/04/07 04:51:56;;;;;;;9.13;6.90;;;;;;;9.01;78.86;99399.47;1769867;81;21632;-74
2021/04/07 04:54:24;;;;;;;9.38;8.03;;;;;;;8.97;78.89;99402.42;1769853;80;20932;-73
2021/04/07 04:56:52;;;;;;;8.75;7.55;;;;;;;8.94;79.03;99407.41;1769942;79;20907;-78
2021/04/07 04:59:20;;;;;;;11.60;8.25;;;;;;;8.96;78.96;99397.67;1769963;81;21194;-76
2021/04/07 05:01:48;;;;;;;11.28;7.53;;;;;;;8.99;78.92;99403.98;1769893;79;21572;-77
2021/04/07 05:04:16;;;;;;;9.95;7.20;;;;;;;9.01;79.03;99405.19;1769869;81;20911;-72
2021/04/07 05:06:45;;;;;;;11.88;7.92;;;;;;;9.07;79.08;99404.27;1777958;80;21483;-73
2021/04/07 05:09:13;;;;;;;11.03;8.53;;;;;;;9.10;79.09;99401.41;1778440;80;20935;-71
2021/04/07 05:11:41;;;;;;;11.80;8.98;;;;;;;9.16;78.92;99404.51;1778380;80;21263;-75
2021/04/07 05:14:09;;;;;;;12.93;8.48;;;;;;;9.19;78.79;99395.98;1778389;79;21014;-73
2021/04/07 05:16:38;;;;;;;16.97;11.55;;;;;;;9.24;78.56;99387.30;1778464;80;21416;-74
2021/04/07 05:19:08;;;;;;;13.75;10.00;;;;;;;9.28;78.46;99380.08;1778457;80;21419;-75
2021/04/07 05:21:36;;;;;;;13.22;9.23;;;;;;;9.30;78.73;99380.80;1778407;80;21033;-74
2021/04/07 05:24:07;;;;;;;15.58;10.60;;;;;;;9.31;78.65;99385.89;1778354;80;22374;-74
2021/04/07 05:26:35;;;;;;;19.40;10.48;;;;;;;9.33;78.92;99389.23;1778290;79;21050;-72
2021/04/07 05:29:04;;;;;;;15.98;12.65;;;;;;;9.39;78.98;99397.59;1778362;79;20922;-71
2021/04/07 05:31:33;;;;;;;19.52;11.83;;;;;;;9.39;78.85;99400.20;1778474;80;21487;-71
2021/04/07 05:34:02;;;;;;;11.08;7.03;;;;;;;9.38;78.86;99400.66;1778417;80;20915;-73
2021/04/07 05:36:31;;;;;;;12.00;8.38;;;;;;;9.40;78.87;99395.32;1778423;79;22269;-73
2021/04/07 05:38:59;;;;;;;13.65;9.33;;;;;;;9.42;78.95;99393.42;1778446;79;21531;-72
2021/04/07 05:41:27;;;;;;;5.85;4.72;;;;;;;9.44;78.96;99392.36;1778397;79;20990;-72
2021/04/07 05:43:58;;;;;;;7.45;6.65;;;;;;;9.46;78.87;99385.23;1778300;80;21097;-74
2021/04/07 05:46:26;;;;;;;8.08;6.45;;;;;;;9.46;78.95;99386.53;1778556;79;21065;-74
2021/04/07 05:48:54;;;;;;;6.10;5.50;;;;;;;9.47;78.95;99376.90;1778419;80;21269;-74
2021/04/07 05:51:23;;;;;;;6.50;4.42;;;;;;;9.49;78.84;99370.63;1778403;80;21468;-72
2021/04/07 05:53:51;;;;;;;7.10;6.15;;;;;;;9.50;78.86;99364.42;1778509;80;20927;-73
2021/04/07 05:56:21;;;;;;;7.50;5.58;;;;;;;9.53;78.92;99361.56;1777396;80;21534;-72
2021/04/07 05:58:49;;;;;;;6.25;5.65;;;;;;;9.59;78.96;99366.00;1778382;80;21014;-71
2021/04/07 06:01:17;;;;;;;10.72;7.58;;;;;;;9.59;79.12;99355.53;1778352;80;21357;-71
2021/04/07 06:03:45;;;;;;;8.45;6.60;;;;;;;9.60;79.07;99345.41;1778255;80;20922;-71
2021/04/07 06:06:13;;;;;;;7.65;6.37;;;;;;;9.61;79.12;99336.62;1773202;80;21349;-70
2021/04/07 06:08:43;;;;;;;6.80;5.78;;;;;;;9.62;79.03;99343.50;1769965;81;21110;-73
2021/04/07 06:11:12;;;;;;;7.05;5.50;;;;;;;9.61;78.92;99340.54;1769884;81;20942;-72
2021/04/07 06:13:40;;;;;;;6.17;5.50;;;;;;;9.59;78.89;99341.13;1769909;81;21764;-72
2021/04/07 06:16:08;;;;;;;7.12;6.50;;;;;;;9.56;79.00;99350.05;1769834;81;21337;-71
2021/04/07 06:18:39;;;;;;;8.33;5.95;;;;;;;9.53;79.23;99355.02;1769917;80;21420;-72
2021/04/07 06:21:07;;;;;;;7.87;7.10;;;;;;;9.55;79.50;99354.44;1769880;81;21017;-72
2021/04/07 06:23:36;;;;;;;8.53;7.33;;;;;;;9.62;79.47;99352.66;1769993;81;20931;-72
2021/04/07 06:26:04;;;;;;;7.75;6.95;;;;;;;9.64;79.28;99343.73;1770089;81;21254;-72
2021/04/07 06:28:32;;;;;;;9.35;6.28;;;;;;;9.65;79.23;99338.02;1770009;81;20951;-70
2021/04/07 06:31:00;;;;;;;7.45;6.00;;;;;;;9.65;79.24;99317.94;1770023;79;20998;-72
2021/04/07 06:33:33;;;;;;;6.92;6.05;;;;;;;9.64;79.37;99319.36;1770016;81;21003;-72
2021/04/07 06:36:05;;;;;;;12.33;7.17;;;;;;;9.66;79.50;99325.31;1770103;80;20919;-74
2021/04/07 06:38:35;;;;;;;9.60;7.58;;;;;;;9.68;79.53;99321.62;1770010;81;22518;-73
2021/04/07 06:41:07;;;;;;;12.45;8.73;;;;;;;9.69;79.50;99321.99;1770016;81;20946;-73
2021/04/07 06:43:36;;;;;;;12.58;9.43;;;;;;;9.73;79.54;99330.42;1770071;81;20955;-74
2021/04/07 06:46:08;;;;;;;10.75;7.20;;;;;;;9.78;79.46;99340.53;1770046;81;21026;-72
2021/04/07 06:48:36;;;;;;;11.40;7.10;;;;;;;9.80;79.37;99346.00;1770104;79;21452;-75
2021/04/07 06:51:04;;;;;;;10.38;6.75;;;;;;;9.80;79.34;99342.08;1769978;81;21371;-72
2021/04/07 06:53:33;;;;;;;9.03;6.10;;;;;;;9.83;79.34;99330.56;1769964;81;20959;-73
2021/04/07 06:56:05;;;;;;;11.22;7.10;;;;;;;9.84;79.43;99326.49;1770096;81;21381;-75
2021/04/07 06:58:33;;;;;;;13.60;8.08;;;;;;;9.84;79.57;99322.56;1769978;81;20935;-73
2021/04/07 07:01:01;;;;;;;14.00;8.55;;;;;;;9.88;79.60;99321.38;1770041;79;20923;-73
2021/04/07 07:03:30;;;;;;;14.80;8.65;;;;;;;9.92;79.60;99321.98;1770231;81;22368;-74
2021/04/07 07:05:58;;;;;;;14.90;8.78;;;;;;;9.98;79.47;99315.41;1770549;80;21022;-76
2021/04/07 07:08:31;;;;;;;19.10;8.73;;;;;;;10.02;79.17;99318.16;1768606;79;21013;-74
2021/04/07 07:11:11;;;;;;;20.55;10.25;;;;;;;10.05;79.25;99321.83;1770182;80;20992;-73
2021/04/07 07:13:41;;;;;;;18.05;8.98;;;;;;;10.12;79.30;99318.62;1770158;79;20998;-73
2021/04/07 07:16:11;;;;;;;22.37;9.20;;;;;;;10.20;79.15;99311.94;1770171;81;22018;-76
2021/04/07 07:18:44;;;;;;;18.50;9.63;;;;;;;10.26;78.87;99316.70;1769916;81;21057;-75
2021/04/07 07:21:16;;;;;;;15.58;9.70;;;;;;;10.33;78.65;99303.48;1770124;79;21337;-74
2021/04/07 07:23:47;;;;;;;19.70;9.20;;;;;;;10.34;78.36;99292.06;1769902;81;21511;-74
2021/04/07 07:26:18;;;;;;;18.65;10.82;;;;;;;10.31;78.31;99295.73;1769882;81;21361;-75
2021/04/07 07:28:58;;;;;;;13.43;8.75;;;;;;;10.32;78.43;99296.11;1770041;81;21353;-73
2021/04/07 07:31:29;;;;;;;17.95;8.33;;;;;;;10.35;78.49;99289.30;1769963;79;21372;-73
2021/04/07 07:34:03;;;;;;;14.25;9.18;;;;;;;10.41;78.38;99297.64;1770002;81;21022;-73
2021/04/07 07:36:34;;;;;;;16.87;12.13;;;;;;;10.43;78.46;99310.15;1770074;81;21639;-72
2021/04/07 07:39:05;;;;;;;18.98;11.43;;;;;;;10.46;78.20;99309.89;1770169;80;21353;-73
2021/04/07 07:41:35;;;;;;;18.20;13.45;;;;;;;10.47;77.96;99316.78;1770022;81;21393;-74
2021/04/07 07:44:05;;;;;;;14.33;10.63;;;;;;;10.44;78.01;99315.73;1768179;80;20958;-75
2021/04/07 07:46:35;;;;;;;16.10;10.48;;;;;;;10.43;77.86;99309.67;1769983;79;20927;-73
2021/04/07 07:49:16;;;;;;;12.88;10.80;;;;;;;10.42;77.84;99307.98;1770043;80;20943;-75
2021/04/07 07:51:46;;;;;;;18.30;11.48;;;;;;;10.41;78.01;99313.38;1769963;81;20950;-74
2021/04/07 07:54:18;;;;;;;14.90;10.78;;;;;;;10.40;77.90;99311.69;1769979;79;21369;-73
2021/04/07 07:56:47;;;;;;;16.93;11.10;;;;;;;10.32;77.90;99318.38;1769910;79;21073;-75
2021/04/07 07:59:30;;;;;;;11.40;9.55;;;;;;;10.22;78.15;99311.34;1770056;80;20944;-74
2021/04/07 08:01:58;;;;;;;14.05;10.38;;;;;;;10.11;78.35;99307.77;1770067;80;21471;-71
2021/04/07 08:04:29;;;;;;;10.45;9.30;;;;;;;10.06;78.66;99311.73;1770065;81;21468;-75
2021/04/07 08:06:57;;;;;;;9.50;8.58;;;;;;;10.04;78.77;99301.84;1775374;80;22259;-73
2021/04/07 08:09:28;;;;;;;13.65;9.95;;;;;;;10.02;79.05;99307.68;1778440;80;21053;-76
2021/04/07 08:11:58;;;;;;;11.43;9.28;;;;;;;9.99;79.17;99312.69;1778457;79;20978;-74
2021/04/07 08:14:27;;;;;;;13.70;9.88;;;;;;;9.90;79.23;99302.45;1778496;79;21365;-73
2021/04/07 08:16:55;;;;;;;12.78;10.90;;;;;;;9.81;79.47;99314.13;1778583;79;21444;-75
2021/04/07 08:19:23;;;;;;;12.63;9.45;;;;;;;9.79;79.76;99312.11;1778439;80;21190;-76
2021/04/07 08:21:53;;;;;;;10.48;8.70;;;;;;;9.78;79.69;99315.66;1752587;80;20923;-75
2021/04/07 08:24:22;;;;;;;11.85;9.73;;;;;;;9.71;79.57;99320.05;1778442;80;20966;-75
2021/04/07 08:26:50;;;;;;;9.33;8.33;;;;;;;9.64;79.87;99318.05;1778324;80;21076;-76
2021/04/07 08:29:18;;;;;;;8.53;7.62;;;;;;;9.60;80.04;99323.16;1778452;80;21021;-71
2021/04/07 08:31:48;;;;;;;11.38;8.85;;;;;;;9.57;80.31;99320.30;1778413;80;21362;-77
2021/04/07 08:34:19;;;;;;;11.30;8.18;;;;;;;9.60;80.50;99325.77;1778423;79;21511;-75
2021/04/07 08:36:47;;;;;;;11.40;9.33;;;;;;;9.61;80.53;99326.15;1778454;80;21618;-76
2021/04/07 08:39:18;;;;;;;12.78;10.78;;;;;;;9.59;80.34;99328.05;1778475;80;21489;-75
2021/04/07 08:41:47;;;;;;;13.35;10.35;;;;;;;9.57;80.43;99333.88;1778493;80;21401;-80
2021/04/07 08:44:19;;;;;;;12.95;10.53;;;;;;;9.55;80.39;99326.95;1778419;80;21382;-77
2021/04/07 08:46:54;;;;;;;12.68;9.50;;;;;;;9.53;80.31;99331.95;1778309;80;20990;-78
2021/04/07 08:49:41;;;;;;;12.90;9.05;;;;;;;9.49;80.46;99325.28;1753103;80;21511;-80
2021/04/07 08:52:20;;;;;;;9.98;8.55;;;;;;;9.46;80.51;99325.05;1753364;80;21515;-79
2021/04/07 08:54:59;;;;;;;12.45;8.58;;;;;;;9.45;80.70;99327.31;1778399;80;21431;-77
2021/04/07 08:57:35;;;;;;;9.40;8.50;;;;;;;9.41;80.87;99325.88;1778337;80;22341;-81
2021/04/07 09:00:14;;;;;;;11.38;8.08;;;;;;;9.40;81.02;99320.75;1778332;80;20998;-80
2021/04/07 09:02:55;;;;;;;9.05;7.70;;;;;;;9.39;81.03;99319.92;1778499;80;20926;-78
2021/04/07 09:05:35;;;;;;;9.75;7.97;;;;;;;9.40;81.20;99314.21;1778527;80;21451;-78
2021/04/07 09:08:05;;;;;;;9.13;7.92;;;;;;;9.45;81.16;99315.99;1780723;80;21026;-80
2021/04/07 09:10:43;;;;;;;9.20;7.47;;;;;;;9.43;81.14;99323.16;1780714;80;21391;-79
2021/04/07 09:13:16;;;;;;;8.08;7.28;;;;;;;9.42;81.41;99318.86;1779081;80;20978;-81
2021/04/07 09:16:05;;;;;;;8.95;6.85;;;;;;;9.46;81.50;99316.37;1778990;80;21452;-78
2021/04/07 09:18:44;;;;;;;9.48;7.70;;;;;;;9.49;81.37;99323.52;1778751;80;20950;-78
2021/04/07 09:21:22;;;;;;;9.08;7.90;;;;;;;9.51;81.29;99322.90;1778565;80;20951;-78
2021/04/07 09:23:54;;;;;;;7.95;6.75;;;;;;;9.51;81.24;99321.59;1778421;80;21358;-78
2021/04/07 09:26:26;;;;;;;8.98;7.35;;;;;;;9.54;81.27;99314.83;1778374;80;20958;-78
2021/04/07 09:28:55;;;;;;;13.88;8.98;;;;;;;9.57;81.46;99320.78;1779202;79;20946;-79
2021/04/07 09:31:35;;;;;;;12.03;9.43;;;;;;;9.60;81.15;99321.36;1779249;80;20930;-80
2021/04/07 09:34:06;;;;;;;14.50;10.10;;;;;;;9.62;80.90;99327.31;1778524;79;20903;-79
2021/04/07 09:36:43;;;;;;;12.60;8.18;;;;;;;9.62;80.69;99331.72;1778621;80;21191;-79
2021/04/07 09:39:11;;;;;;;13.53;9.80;;;;;;;9.61;80.70;99338.75;1777744;79;21002;-80
2021/04/07 09:41:43;;;;;;;15.63;9.50;;;;;;;9.61;80.68;99328.77;1778221;80;21069;-79
2021/04/07 09:44:13;;;;;;;15.28;11.75;;;;;;;9.58;80.72;99325.88;1778362;80;21470;-77
2021/04/07 09:46:44;;;;;;;18.40;14.38;;;;;;;9.61;80.85;99335.31;1778362;80;20926;-80
2021/04/07 09:49:11;;;;;;;21.90;17.40;;;;;;;9.63;80.69;99336.85;1777895;80;21417;-80
2021/04/07 09:51:46;;;;;;;18.90;15.18;;;;;;;9.66;80.77;99341.02;1778385;79;21512;-78
2021/04/07 09:54:25;;;;;;;19.82;15.45;;;;;;;9.63;80.53;99339.95;1778660;80;24363;-84
2021/04/07 09:57:06;;;;;;;21.75;17.10;;;;;;;9.60;80.50;99339.69;1778479;80;20946;-81
2021/04/07 09:59:49;;;;;;;39.08;28.15;;;;;;;9.60;80.31;99334.45;1778423;79;20927;-81
2021/04/07 10:02:26;;;;;;;25.50;18.40;;;;;;;9.57;80.42;99313.76;1778624;80;21495;-80
2021/04/07 10:04:57;;;;;;;20.62;15.95;;;;;;;9.60;80.66;99302.22;1778300;80;21073;-81
2021/04/07 10:07:28;;;;;;;22.25;17.12;;;;;;;9.67;80.72;99291.17;1778376;79;20934;-82
2021/04/07 10:10:00;;;;;;;19.67;15.13;;;;;;;9.75;80.44;99304.95;1778668;80;21073;-80
2021/04/07 10:12:29;;;;;;;22.67;15.50;;;;;;;9.82;80.30;99311.38;1778395;80;20998;-81
2021/04/07 10:14:59;;;;;;;21.80;16.12;;;;;;;9.93;79.81;99319.22;1778349;80;21350;-81
2021/04/07 10:17:33;;;;;;;29.80;22.90;;;;;;;10.01;79.83;99326.50;1778462;80;21531;-80
2021/04/07 10:21:29;;;;;;;19.87;15.25;;;;;;;10.20;80.29;99330.28;1777119;79;22636;-81
2021/04/07 10:23:58;;;;;;;16.17;13.35;;;;;;;10.22;80.16;99329.20;1749725;80;20942;-81
2021/04/07 10:26:26;;;;;;;17.20;13.72;;;;;;;10.33;80.13;99338.86;1749668;82;21260;-81
2021/04/07 10:29:02;;;;;;;18.67;14.63;;;;;;;10.44;80.06;99334.08;1749574;82;21022;-81
2021/04/07 10:31:31;;;;;;;18.60;12.85;;;;;;;10.56;79.75;99337.01;1749731;82;21464;-81
2021/04/07 10:34:10;;;;;;;13.88;11.55;;;;;;;10.64;79.18;99339.85;1749828;82;20896;-80
2021/04/07 10:36:39;;;;;;;12.88;11.10;;;;;;;10.73;79.14;99346.97;1749739;81;20915;-78
2021/04/07 10:39:15;;;;;;;14.65;12.18;;;;;;;10.87;78.57;99348.95;1749778;80;21370;-78
2021/04/07 10:41:51;;;;;;;16.17;13.03;;;;;;;11.03;78.08;99341.96;1751424;82;21022;-81
2021/04/07 10:44:26;;;;;;;16.82;12.78;;;;;;;11.21;77.50;99347.02;1749891;82;20939;-81
2021/04/07 10:46:54;;;;;;;19.07;15.05;;;;;;;11.39;76.93;99348.09;1749601;82;20940;-81
2021/04/07 10:49:23;;;;;;;24.95;20.20;;;;;;;11.51;76.30;99355.91;1749641;80;20967;-80
2021/04/07 10:52:06;;;;;;;61.05;50.60;;;;;;;11.64;76.25;99355.70;1722334;81;22778;-80
2021/04/07 10:54:35;;;;;;;56.68;44.88;;;;;;;11.78;75.64;99359.28;1719739;83;20955;-80
2021/04/07 10:57:12;;;;;;;62.38;50.70;;;;;;;11.90;74.93;99353.03;1719805;83;21022;-81
2021/04/07 10:59:44;;;;;;;71.45;56.83;;;;;;;12.02;74.57;99359.02;1719723;83;21006;-82
2021/04/07 11:02:15;;;;;;;76.05;54.65;;;;;;;12.19;74.00;99347.88;1669789;83;21460;-84
2021/04/07 11:04:43;;;;;;;68.35;51.20;;;;;;;12.42;73.56;99348.48;1719795;83;21389;-81
2021/04/07 11:07:12;;;;;;;65.62;51.37;;;;;;;12.70;72.82;99347.85;1719715;82;21034;-80
2021/04/07 11:09:50;;;;;;;61.75;44.85;;;;;;;13.08;72.27;99358.05;1720076;83;21054;-81
2021/04/07 11:12:21;;;;;;;56.08;38.17;;;;;;;13.49;70.76;99364.79;1719737;83;20942;-84
2021/04/07 11:14:53;;;;;;;48.13;35.55;;;;;;;13.89;70.53;99358.44;1719865;83;20956;-84
2021/04/07 11:17:20;;;;;;;55.20;37.60;;;;;;;14.17;69.37;99356.67;1719868;83;22305;-81
2021/04/07 11:19:49;;;;;;;48.95;37.70;;;;;;;14.30;67.39;99350.56;1717169;83;21358;-85
2021/04/07 11:22:17;;;;;;;36.65;28.80;;;;;;;14.33;66.73;99353.88;1651596;84;21457;-84
2021/04/07 11:24:46;;;;;;;48.05;35.92;;;;;;;14.27;65.72;99354.83;1707198;82;20963;-85
2021/04/07 11:27:14;;;;;;;47.03;36.73;;;;;;;14.15;65.50;99353.84;1707120;83;21015;-84
2021/04/07 11:29:43;;;;;;;50.52;35.43;;;;;;;14.00;65.96;99359.58;1707136;84;22699;-82
2021/04/07 11:32:12;;;;;;;46.60;34.92;;;;;;;13.90;66.21;99361.44;1706601;84;20971;-81
2021/04/07 11:34:58;;;;;;;41.65;31.00;;;;;;;13.85;66.23;99351.80;1703587;82;21050;-82
2021/04/07 11:40:07;;;;;;;;;;;;;;;13.76;66.24;99339.48;1706078;84;20998;-84
2021/04/07 11:43:15;;;;;;;48.23;34.88;;;;;;;13.87;65.61;99342.80;1706579;84;21392;-73
2021/04/07 11:45:14;;;;;;;43.70;31.52;;;;;;;13.99;65.54;99346.06;1703266;84;21596;-72
2021/04/07 11:47:43;;;;;;;34.78;24.90;;;;;;;14.11;64.85;99344.06;1706431;84;21031;-72
2021/04/07 11:50:12;;;;;;;33.45;22.80;;;;;;;14.12;63.53;99345.73;1706433;82;21074;-76